sensor_id;sensor_type;location;lat;lon;timestamp;pressure;altitude;pressure_sealevel;temperature;humidity
40992;BME280;29633;49.168;9.848;2023-03-14T00:00:47;95190.44;;;13.27;66.64
40992;BME280;29633;49.168;9.848;2023-03-14T00:03:13;95197.69;;;13.32;66.59
40992;BME280;29633;49.168;9.848;2023-03-14T00:05:39;95201.09;;;13.32;66.64
40992;BME280;29633;49.168;9.848;2023-03-14T00:08:04;95212.69;;;13.30;66.66
40992;BME280;29633;49.168;9.848;2023-03-14T00:10:30;95210.88;;;13.30;66.72
40992;BME280;29633;49.168;9.848;2023-03-14T00:12:56;95214.00;;;13.26;67.10
40992;BME280;29633;49.168;9.848;2023-03-14T00:15:21;95222.19;;;13.23;67.11
40992;BME280;29633;49.168;9.848;2023-03-14T00:17:47;95236.34;;;13.20;67.24
40992;BME280;29633;49.168;9.848;2023-03-14T00:20:13;95208.88;;;13.18;67.42
40992;BME280;29633;49.168;9.848;2023-03-14T00:22:39;95216.69;;;13.18;67.38
40992;BME280;29633;49.168;9.848;2023-03-14T00:25:06;95222.72;;;13.18;67.47
40992;BME280;29633;49.168;9.848;2023-03-14T00:27:32;95221.91;;;13.18;67.51
40992;BME280;29633;49.168;9.848;2023-03-14T00:29:57;95200.09;;;13.19;67.29
40992;BME280;29633;49.168;9.848;2023-03-14T00:32:23;95218.31;;;13.19;67.43
40992;BME280;29633;49.168;9.848;2023-03-14T00:34:49;95203.31;;;13.21;67.34
40992;BME280;29633;49.168;9.848;2023-03-14T00:37:14;95229.63;;;13.26;67.27
40992;BME280;29633;49.168;9.848;2023-03-14T00:39:40;95218.06;;;13.28;67.31
40992;BME280;29633;49.168;9.848;2023-03-14T00:42:06;95210.88;;;13.30;67.20
40992;BME280;29633;49.168;9.848;2023-03-14T00:44:31;95189.25;;;13.30;67.17
40992;BME280;29633;49.168;9.848;2023-03-14T00:46:57;95208.44;;;13.29;67.18
40992;BME280;29633;49.168;9.848;2023-03-14T00:49:23;95204.06;;;13.29;67.27
40992;BME280;29633;49.168;9.848;2023-03-14T00:51:49;95189.41;;;13.28;67.15
40992;BME280;29633;49.168;9.848;2023-03-14T00:54:14;95185.22;;;13.27;67.19
40992;BME280;29633;49.168;9.848;2023-03-14T00:56:40;95189.41;;;13.28;67.24
40992;BME280;29633;49.168;9.848;2023-03-14T00:59:06;95193.81;;;13.28;67.45
40992;BME280;29633;49.168;9.848;2023-03-14T01:01:31;95190.75;;;13.24;67.55
40992;BME280;29633;49.168;9.848;2023-03-14T01:03:57;95198.56;;;13.24;67.37
40992;BME280;29633;49.168;9.848;2023-03-14T01:06:25;95195.63;;;13.27;67.49
40992;BME280;29633;49.168;9.848;2023-03-14T01:08:51;95187.63;;;13.29;67.44
40992;BME280;29633;49.168;9.848;2023-03-14T01:11:25;95177.69;;;13.32;67.25
40992;BME280;29633;49.168;9.848;2023-03-14T01:13:51;95177.31;;;13.36;67.39
40992;BME280;29633;49.168;9.848;2023-03-14T01:16:18;95187.91;;;13.34;67.58
40992;BME280;29633;49.168;9.848;2023-03-14T01:18:44;95189.88;;;13.32;67.67
40992;BME280;29633;49.168;9.848;2023-03-14T01:21:19;95188.91;;;13.33;67.55
40992;BME280;29633;49.168;9.848;2023-03-14T01:23:45;95185.69;;;13.31;67.62
40992;BME280;29633;49.168;9.848;2023-03-14T01:26:13;95183.06;;;13.31;67.64
40992;BME280;29633;49.168;9.848;2023-03-14T01:28:39;95180.47;;;13.31;67.69
40992;BME280;29633;49.168;9.848;2023-03-14T01:31:08;95164.84;;;13.31;67.84
40992;BME280;29633;49.168;9.848;2023-03-14T01:33:35;95164.66;;;13.32;67.83
40992;BME280;29633;49.168;9.848;2023-03-14T01:36:01;95154.69;;;13.36;67.81
40992;BME280;29633;49.168;9.848;2023-03-14T01:38:33;95152.09;;;13.36;67.57
40992;BME280;29633;49.168;9.848;2023-03-14T01:41:00;95151.28;;;13.36;67.72
40992;BME280;29633;49.168;9.848;2023-03-14T01:43:26;95138.63;;;13.32;67.64
40992;BME280;29633;49.168;9.848;2023-03-14T01:54:20;95113.72;;;13.23;68.06
40992;BME280;29633;49.168;9.848;2023-03-14T01:56:50;95099.88;;;13.23;68.01
40992;BME280;29633;49.168;9.848;2023-03-14T01:59:17;95099.88;;;13.23;68.17
40992;BME280;29633;49.168;9.848;2023-03-14T02:01:44;95099.69;;;13.24;68.03
40992;BME280;29633;49.168;9.848;2023-03-14T02:04:10;95083.09;;;13.25;67.96
40992;BME280;29633;49.168;9.848;2023-03-14T02:06:52;95079.69;;;13.25;68.00
40992;BME280;29633;49.168;9.848;2023-03-14T02:09:20;95070.91;;;13.26;68.19
40992;BME280;29633;49.168;9.848;2023-03-14T02:11:46;95058.69;;;13.26;67.94
40992;BME280;29633;49.168;9.848;2023-03-14T02:14:19;95051.50;;;13.28;68.11
40992;BME280;29633;49.168;9.848;2023-03-14T02:16:47;95045.50;;;13.28;67.91
40992;BME280;29633;49.168;9.848;2023-03-14T02:19:12;95046.50;;;13.27;68.04
40992;BME280;29633;49.168;9.848;2023-03-14T02:24:13;95053.94;;;13.30;67.92
40992;BME280;29633;49.168;9.848;2023-03-14T02:27:00;95060.13;;;13.29;68.22
40992;BME280;29633;49.168;9.848;2023-03-14T02:29:26;95060.50;;;13.26;68.20
40992;BME280;29633;49.168;9.848;2023-03-14T02:31:53;95066.50;;;13.26;67.92
40992;BME280;29633;49.168;9.848;2023-03-14T02:34:21;95060.03;;;13.22;68.14
40992;BME280;29633;49.168;9.848;2023-03-14T02:36:46;95057.59;;;13.21;68.28
40992;BME280;29633;49.168;9.848;2023-03-14T02:39:16;95052.59;;;13.19;68.13
40992;BME280;29633;49.168;9.848;2023-03-14T02:41:46;95054.19;;;13.20;68.09
40992;BME280;29633;49.168;9.848;2023-03-14T02:44:14;95065.41;;;13.21;68.07
40992;BME280;29633;49.168;9.848;2023-03-14T02:46:40;95062.66;;;13.22;68.19
40992;BME280;29633;49.168;9.848;2023-03-14T02:49:12;95050.25;;;13.24;68.19
40992;BME280;29633;49.168;9.848;2023-03-14T02:51:39;95042.88;;;13.28;68.09
40992;BME280;29633;49.168;9.848;2023-03-14T02:54:05;95036.91;;;13.27;68.08
40992;BME280;29633;49.168;9.848;2023-03-14T02:56:31;95030.25;;;13.25;68.12
40992;BME280;29633;49.168;9.848;2023-03-14T02:58:59;95032.22;;;13.23;68.14
40992;BME280;29633;49.168;9.848;2023-03-14T03:01:27;95032.41;;;13.21;68.22
40992;BME280;29633;49.168;9.848;2023-03-14T03:03:53;95036.78;;;13.21;68.18
40992;BME280;29633;49.168;9.848;2023-03-14T03:06:19;95041.56;;;13.17;68.39
40992;BME280;29633;49.168;9.848;2023-03-14T03:08:44;95042.13;;;13.13;68.29
40992;BME280;29633;49.168;9.848;2023-03-14T03:11:10;95034.81;;;13.08;68.38
40992;BME280;29633;49.168;9.848;2023-03-14T03:13:36;95043.25;;;13.10;68.50
40992;BME280;29633;49.168;9.848;2023-03-14T03:16:02;95043.25;;;13.10;68.47
40992;BME280;29633;49.168;9.848;2023-03-14T03:18:27;95044.28;;;13.09;68.30
40992;BME280;29633;49.168;9.848;2023-03-14T03:20:53;95028.47;;;13.11;68.39
40992;BME280;29633;49.168;9.848;2023-03-14T03:23:19;95045.16;;;13.16;68.33
40992;BME280;29633;49.168;9.848;2023-03-14T03:25:51;95031.97;;;13.18;68.37
40992;BME280;29633;49.168;9.848;2023-03-14T03:28:17;95023.34;;;13.17;68.13
40992;BME280;29633;49.168;9.848;2023-03-14T03:30:43;95024.34;;;13.16;68.19
40992;BME280;29633;49.168;9.848;2023-03-14T03:33:09;95013.94;;;13.16;68.22
40992;BME280;29633;49.168;9.848;2023-03-14T03:35:42;95018.94;;;13.18;68.14
40992;BME280;29633;49.168;9.848;2023-03-14T03:38:07;95017.78;;;13.20;68.06
40992;BME280;29633;49.168;9.848;2023-03-14T03:40:33;95016.63;;;13.23;68.10
40992;BME280;29633;49.168;9.848;2023-03-14T03:42:59;95015.81;;;13.22;68.21
40992;BME280;29633;49.168;9.848;2023-03-14T03:45:26;95012.03;;;13.25;68.22
40992;BME280;29633;49.168;9.848;2023-03-14T03:47:51;95014.63;;;13.25;68.09
40992;BME280;29633;49.168;9.848;2023-03-14T03:50:17;95007.19;;;13.22;68.22
40992;BME280;29633;49.168;9.848;2023-03-14T03:52:42;95019.22;;;13.23;67.96
40992;BME280;29633;49.168;9.848;2023-03-14T03:55:08;95001.00;;;13.23;68.12
40992;BME280;29633;49.168;9.848;2023-03-14T03:57:36;95002.25;;;13.27;67.99
40992;BME280;29633;49.168;9.848;2023-03-14T04:00:03;94999.28;;;13.30;67.78
40992;BME280;29633;49.168;9.848;2023-03-14T04:02:30;94996.69;;;13.30;68.02
40992;BME280;29633;49.168;9.848;2023-03-14T04:04:56;94991.22;;;13.25;68.18
40992;BME280;29633;49.168;9.848;2023-03-14T04:07:21;94982.78;;;13.23;67.96
40992;BME280;29633;49.168;9.848;2023-03-14T04:09:47;94984.59;;;13.22;68.01
40992;BME280;29633;49.168;9.848;2023-03-14T04:12:12;94989.16;;;13.20;68.01
40992;BME280;29633;49.168;9.848;2023-03-14T04:14:38;94991.13;;;13.18;68.11
40992;BME280;29633;49.168;9.848;2023-03-14T04:17:06;94985.66;;;13.13;68.19
40992;BME280;29633;49.168;9.848;2023-03-14T04:19:32;94979.03;;;13.11;68.12
40992;BME280;29633;49.168;9.848;2023-03-14T04:21:58;94986.38;;;13.07;68.22
40992;BME280;29633;49.168;9.848;2023-03-14T04:24:23;94980.03;;;13.10;68.13
40992;BME280;29633;49.168;9.848;2023-03-14T04:26:49;94979.53;;;13.06;68.06
40992;BME280;29633;49.168;9.848;2023-03-14T04:29:15;94977.97;;;13.05;68.25
40992;BME280;29633;49.168;9.848;2023-03-14T04:31:43;94980.56;;;13.05;68.29
40992;BME280;29633;49.168;9.848;2023-03-14T04:34:08;94972.91;;;13.04;68.16
40992;BME280;29633;49.168;9.848;2023-03-14T04:36:34;94972.09;;;13.03;68.09
40992;BME280;29633;49.168;9.848;2023-03-14T04:39:00;94969.34;;;13.05;68.10
40992;BME280;29633;49.168;9.848;2023-03-14T04:41:25;94978.13;;;13.04;68.36
40992;BME280;29633;49.168;9.848;2023-03-14T04:43:51;94984.31;;;13.03;68.06
40992;BME280;29633;49.168;9.848;2023-03-14T04:46:16;94976.69;;;13.01;68.12
40992;BME280;29633;49.168;9.848;2023-03-14T04:48:42;94961.47;;;12.98;68.09
40992;BME280;29633;49.168;9.848;2023-03-14T04:51:08;94966.31;;;13.01;68.14
40992;BME280;29633;49.168;9.848;2023-03-14T04:53:36;94962.69;;;13.02;67.91
40992;BME280;29633;49.168;9.848;2023-03-14T04:56:02;94964.06;;;12.98;68.14
40992;BME280;29633;49.168;9.848;2023-03-14T04:58:28;94962.81;;;12.94;68.20
40992;BME280;29633;49.168;9.848;2023-03-14T05:00:54;94958.41;;;12.95;68.12
40992;BME280;29633;49.168;9.848;2023-03-14T05:03:19;94964.59;;;12.94;68.14
40992;BME280;29633;49.168;9.848;2023-03-14T05:05:45;94964.97;;;12.91;68.06
40992;BME280;29633;49.168;9.848;2023-03-14T05:08:11;94957.34;;;12.89;68.25
40992;BME280;29633;49.168;9.848;2023-03-14T05:10:37;94954.94;;;12.88;68.22
40992;BME280;29633;49.168;9.848;2023-03-14T05:13:02;94940.94;;;12.89;68.08
40992;BME280;29633;49.168;9.848;2023-03-14T05:15:28;94928.94;;;12.88;68.00
40992;BME280;29633;49.168;9.848;2023-03-14T05:17:54;94920.50;;;12.86;67.98
40992;BME280;29633;49.168;9.848;2023-03-14T05:20:20;94927.69;;;12.83;68.15
40992;BME280;29633;49.168;9.848;2023-03-14T05:22:46;94922.19;;;12.78;68.25
40992;BME280;29633;49.168;9.848;2023-03-14T05:25:12;94919.00;;;12.76;67.99
40992;BME280;29633;49.168;9.848;2023-03-14T05:27:37;94922.75;;;12.74;68.24
40992;BME280;29633;49.168;9.848;2023-03-14T05:30:04;94915.13;;;12.72;68.38
40992;BME280;29633;49.168;9.848;2023-03-14T05:32:30;94910.56;;;12.74;68.03
40992;BME280;29633;49.168;9.848;2023-03-14T05:34:56;94905.34;;;12.74;68.09
40992;BME280;29633;49.168;9.848;2023-03-14T05:37:25;94906.34;;;12.73;68.25
40992;BME280;29633;49.168;9.848;2023-03-14T05:39:50;94902.13;;;12.72;68.04
40992;BME280;29633;49.168;9.848;2023-03-14T05:42:16;94903.13;;;12.71;68.02
40992;BME280;29633;49.168;9.848;2023-03-14T05:44:41;94897.91;;;12.71;68.02
40992;BME280;29633;49.168;9.848;2023-03-14T05:47:07;94905.56;;;12.73;68.01
40992;BME280;29633;49.168;9.848;2023-03-14T05:49:33;94910.56;;;12.74;68.07
40992;BME280;29633;49.168;9.848;2023-03-14T05:51:58;94896.94;;;12.72;67.86
40992;BME280;29633;49.168;9.848;2023-03-14T05:54:24;94892.72;;;12.71;67.97
40992;BME280;29633;49.168;9.848;2023-03-14T05:56:50;94908.69;;;12.68;67.69
40992;BME280;29633;49.168;9.848;2023-03-14T05:59:15;94896.22;;;12.64;67.88
40992;BME280;29633;49.168;9.848;2023-03-14T06:01:41;94904.75;;;12.58;68.11
40992;BME280;29633;49.168;9.848;2023-03-14T06:04:06;94905.66;;;12.50;68.09
40992;BME280;29633;49.168;9.848;2023-03-14T06:06:32;94900.63;;;12.49;68.27
40992;BME280;29633;49.168;9.848;2023-03-14T06:08:58;94907.28;;;12.51;68.03
40992;BME280;29633;49.168;9.848;2023-03-14T06:11:23;94910.03;;;12.50;68.13
40992;BME280;29633;49.168;9.848;2023-03-14T06:13:50;94900.47;;;12.50;68.07
40992;BME280;29633;49.168;9.848;2023-03-14T06:16:15;94895.25;;;12.50;68.06
40992;BME280;29633;49.168;9.848;2023-03-14T06:18:41;94902.84;;;12.52;68.01
40992;BME280;29633;49.168;9.848;2023-03-14T06:21:07;94897.66;;;12.52;68.14
40992;BME280;29633;49.168;9.848;2023-03-14T06:23:35;94892.66;;;12.50;68.06
40992;BME280;29633;49.168;9.848;2023-03-14T06:26:01;94907.28;;;12.51;68.02
40992;BME280;29633;49.168;9.848;2023-03-14T06:28:26;94909.69;;;12.53;67.98
40992;BME280;29633;49.168;9.848;2023-03-14T06:30:52;94897.50;;;12.53;68.00
40992;BME280;29633;49.168;9.848;2023-03-14T06:33:18;94893.56;;;12.57;68.10
40992;BME280;29633;49.168;9.848;2023-03-14T06:35:44;94898.38;;;12.60;67.93
40992;BME280;29633;49.168;9.848;2023-03-14T06:38:09;94896.59;;;12.61;68.22
40992;BME280;29633;49.168;9.848;2023-03-14T06:40:35;94906.00;;;12.62;67.83
40992;BME280;29633;49.168;9.848;2023-03-14T06:43:01;94901.63;;;12.62;68.04
40992;BME280;29633;49.168;9.848;2023-03-14T06:45:26;94899.63;;;12.64;68.08
40992;BME280;29633;49.168;9.848;2023-03-14T06:47:52;94896.66;;;12.67;67.76
40992;BME280;29633;49.168;9.848;2023-03-14T06:50:17;94890.13;;;12.71;67.83
40992;BME280;29633;49.168;9.848;2023-03-14T06:52:43;94901.13;;;12.73;67.74
40992;BME280;29633;49.168;9.848;2023-03-14T06:55:16;94901.50;;;12.70;67.85
40992;BME280;29633;49.168;9.848;2023-03-14T06:57:42;94901.25;;;12.65;67.87
40992;BME280;29633;49.168;9.848;2023-03-14T07:00:10;94904.84;;;12.64;68.05
40992;BME280;29633;49.168;9.848;2023-03-14T07:02:36;94911.66;;;12.65;67.87
40992;BME280;29633;49.168;9.848;2023-03-14T07:05:02;94904.47;;;12.67;68.00
40992;BME280;29633;49.168;9.848;2023-03-14T07:07:30;94910.31;;;12.69;68.08
40992;BME280;29633;49.168;9.848;2023-03-14T07:09:56;94910.75;;;12.73;67.81
40992;BME280;29633;49.168;9.848;2023-03-14T07:12:21;94914.41;;;12.78;67.68
40992;BME280;29633;49.168;9.848;2023-03-14T07:14:47;94921.47;;;12.84;67.80
40992;BME280;29633;49.168;9.848;2023-03-14T07:17:13;94915.72;;;12.89;67.62
40992;BME280;29633;49.168;9.848;2023-03-14T07:19:38;94910.97;;;12.93;67.56
40992;BME280;29633;49.168;9.848;2023-03-14T07:22:05;94914.66;;;12.98;67.60
40992;BME280;29633;49.168;9.848;2023-03-14T07:24:31;94909.50;;;13.05;67.46
40992;BME280;29633;49.168;9.848;2023-03-14T07:26:56;94912.22;;;13.11;67.61
40992;BME280;29633;49.168;9.848;2023-03-14T07:29:22;94907.72;;;13.20;67.41
40992;BME280;29633;49.168;9.848;2023-03-14T07:31:48;94907.22;;;13.31;67.47
40992;BME280;29633;49.168;9.848;2023-03-14T07:34:13;94914.16;;;13.45;67.32
40992;BME280;29633;49.168;9.848;2023-03-14T07:36:39;94914.84;;;13.54;67.21
40992;BME280;29633;49.168;9.848;2023-03-14T07:39:04;94912.09;;;13.62;67.15
40992;BME280;29633;49.168;9.848;2023-03-14T07:41:30;94905.97;;;13.69;67.16
40992;BME280;29633;49.168;9.848;2023-03-14T07:43:56;94925.22;;;13.75;67.28
40992;BME280;29633;49.168;9.848;2023-03-14T07:46:22;94914.47;;;13.78;67.06
40992;BME280;29633;49.168;9.848;2023-03-14T07:48:50;94914.09;;;13.81;67.29
40992;BME280;29633;49.168;9.848;2023-03-14T07:51:16;94916.47;;;13.82;67.09
40992;BME280;29633;49.168;9.848;2023-03-14T07:53:42;94919.09;;;13.82;67.27
40992;BME280;29633;49.168;9.848;2023-03-14T07:56:08;94907.25;;;13.80;67.38
40992;BME280;29633;49.168;9.848;2023-03-14T07:58:34;94926.28;;;13.80;67.33
40992;BME280;29633;49.168;9.848;2023-03-14T08:00:59;94925.47;;;13.80;67.35
40992;BME280;29633;49.168;9.848;2023-03-14T08:03:25;94919.66;;;13.78;67.31
40992;BME280;29633;49.168;9.848;2023-03-14T08:05:51;94917.84;;;13.78;67.22
40992;BME280;29633;49.168;9.848;2023-03-14T08:08:17;94916.25;;;13.77;67.38
40992;BME280;29633;49.168;9.848;2023-03-14T08:10:43;94919.47;;;13.79;67.30
40992;BME280;29633;49.168;9.848;2023-03-14T08:13:09;94918.47;;;13.80;66.93
40992;BME280;29633;49.168;9.848;2023-03-14T08:15:35;94911.66;;;13.79;67.25
40992;BME280;29633;49.168;9.848;2023-03-14T08:18:02;94912.63;;;13.78;67.16
40992;BME280;29633;49.168;9.848;2023-03-14T08:20:29;94910.25;;;13.77;67.29
40992;BME280;29633;49.168;9.848;2023-03-14T08:22:59;94915.25;;;13.78;67.48
40992;BME280;29633;49.168;9.848;2023-03-14T08:25:25;94902.09;;;13.87;67.32
40992;BME280;29633;49.168;9.848;2023-03-14T08:27:51;94912.19;;;13.96;67.29
40992;BME280;29633;49.168;9.848;2023-03-14T08:30:18;94898.63;;;14.07;67.07
40992;BME280;29633;49.168;9.848;2023-03-14T08:32:44;94899.94;;;14.18;67.00
40992;BME280;29633;49.168;9.848;2023-03-14T08:35:10;94898.78;;;14.27;66.88
40992;BME280;29633;49.168;9.848;2023-03-14T08:37:36;94893.06;;;14.38;66.77
40992;BME280;29633;49.168;9.848;2023-03-14T08:40:03;94898.72;;;14.48;66.57
40992;BME280;29633;49.168;9.848;2023-03-14T08:42:33;94900.38;;;14.62;66.53
40992;BME280;29633;49.168;9.848;2023-03-14T08:44:58;94899.44;;;14.76;66.41
40992;BME280;29633;49.168;9.848;2023-03-14T08:47:24;94900.91;;;14.86;66.54
40992;BME280;29633;49.168;9.848;2023-03-14T08:49:50;94908.94;;;14.91;66.52
40992;BME280;29633;49.168;9.848;2023-03-14T08:52:15;94891.91;;;14.95;66.34
40992;BME280;29633;49.168;9.848;2023-03-14T08:54:43;94902.81;;;15.11;66.52
40992;BME280;29633;49.168;9.848;2023-03-14T08:57:09;94893.78;;;15.20;66.42
40992;BME280;29633;49.168;9.848;2023-03-14T08:59:34;94885.38;;;15.25;66.30
40992;BME280;29633;49.168;9.848;2023-03-14T09:02:00;94903.81;;;15.23;66.34
40992;BME280;29633;49.168;9.848;2023-03-14T09:04:32;94900.03;;;15.26;66.43
40992;BME280;29633;49.168;9.848;2023-03-14T09:06:58;94910.66;;;15.24;66.35
40992;BME280;29633;49.168;9.848;2023-03-14T09:09:25;94902.59;;;15.19;66.49
40992;BME280;29633;49.168;9.848;2023-03-14T09:11:53;94896.78;;;15.17;66.72
40992;BME280;29633;49.168;9.848;2023-03-14T09:14:18;94898.19;;;15.13;66.68
40992;BME280;29633;49.168;9.848;2023-03-14T09:16:44;94893.78;;;15.14;66.59
40992;BME280;29633;49.168;9.848;2023-03-14T09:19:10;94905.81;;;15.15;66.44
40992;BME280;29633;49.168;9.848;2023-03-14T09:21:35;94907.63;;;15.08;66.50
40992;BME280;29633;49.168;9.848;2023-03-14T09:24:01;94908.38;;;15.02;66.47
40992;BME280;29633;49.168;9.848;2023-03-14T09:26:27;94907.78;;;15.00;66.62
40992;BME280;29633;49.168;9.848;2023-03-14T09:28:53;94913.00;;;15.00;66.65
40992;BME280;29633;49.168;9.848;2023-03-14T09:31:18;94909.19;;;15.02;66.59
40992;BME280;29633;49.168;9.848;2023-03-14T09:33:44;94901.56;;;15.01;66.54
40992;BME280;29633;49.168;9.848;2023-03-14T09:36:10;94921.81;;;14.99;66.43
40992;BME280;29633;49.168;9.848;2023-03-14T09:38:35;94912.59;;;14.96;66.42
40992;BME280;29633;49.168;9.848;2023-03-14T09:41:02;94915.97;;;14.90;66.25
40992;BME280;29633;49.168;9.848;2023-03-14T09:43:30;94909.31;;;14.88;66.39
40992;BME280;29633;49.168;9.848;2023-03-14T09:45:57;94914.38;;;14.89;66.48
40992;BME280;29633;49.168;9.848;2023-03-14T09:48:27;94915.78;;;14.92;66.43
40992;BME280;29633;49.168;9.848;2023-03-14T09:50:55;94920.59;;;14.95;66.47
40992;BME280;29633;49.168;9.848;2023-03-14T09:53:27;94935.84;;;14.98;66.31
40992;BME280;29633;49.168;9.848;2023-03-14T09:55:54;94936.47;;;14.93;66.20
40992;BME280;29633;49.168;9.848;2023-03-14T09:58:23;94937.03;;;14.89;66.28
40992;BME280;29633;49.168;9.848;2023-03-14T10:00:50;94942.00;;;14.84;66.28
40992;BME280;29633;49.168;9.848;2023-03-14T10:03:26;94968.28;;;14.75;66.44
40992;BME280;29633;49.168;9.848;2023-03-14T10:05:54;94953.59;;;14.68;66.51
40992;BME280;29633;49.168;9.848;2023-03-14T10:08:21;94967.38;;;14.62;66.65
40992;BME280;29633;49.168;9.848;2023-03-14T10:10:47;94969.38;;;14.60;66.78
40992;BME280;29633;49.168;9.848;2023-03-14T10:13:18;94963.75;;;14.56;66.74
40992;BME280;29633;49.168;9.848;2023-03-14T10:15:51;94951.69;;;14.55;66.78
40992;BME280;29633;49.168;9.848;2023-03-14T10:18:17;94963.75;;;14.56;66.81
40992;BME280;29633;49.168;9.848;2023-03-14T10:20:45;94956.91;;;14.55;66.76
40992;BME280;29633;49.168;9.848;2023-03-14T10:26:23;94957.56;;;14.57;66.84
40992;BME280;29633;49.168;9.848;2023-03-14T10:28:31;94958.41;;;14.64;66.76
40992;BME280;29633;49.168;9.848;2023-03-14T10:30:59;94953.19;;;14.71;66.65
40992;BME280;29633;49.168;9.848;2023-03-14T10:33:30;94952.88;;;14.87;66.48
40992;BME280;29633;49.168;9.848;2023-03-14T10:38:29;94942.53;;;15.07;66.40
40992;BME280;29633;49.168;9.848;2023-03-14T10:40:56;94946.56;;;15.16;66.28
40992;BME280;29633;49.168;9.848;2023-03-14T10:43:25;94950.41;;;15.20;66.41
40992;BME280;29633;49.168;9.848;2023-03-14T10:46:00;94939.56;;;15.23;66.30
40992;BME280;29633;49.168;9.848;2023-03-14T10:48:38;94949.63;;;15.26;66.47
40992;BME280;29633;49.168;9.848;2023-03-14T10:51:11;94948.44;;;15.35;66.34
40992;BME280;29633;49.168;9.848;2023-03-14T10:53:47;94935.41;;;15.48;66.28
40992;BME280;29633;49.168;9.848;2023-03-14T10:56:14;94931.66;;;15.51;66.21
40992;BME280;29633;49.168;9.848;2023-03-14T10:58:46;94927.41;;;15.56;66.25
40992;BME280;29633;49.168;9.848;2023-03-14T11:07:39;94918.81;;;15.75;66.21
40992;BME280;29633;49.168;9.848;2023-03-14T11:10:20;94914.00;;;15.79;66.22
40992;BME280;29633;49.168;9.848;2023-03-14T11:21:15;94909.13;;;15.63;66.02
40992;BME280;29633;49.168;9.848;2023-03-14T11:27:12;94917.78;;;15.63;66.10
40992;BME280;29633;49.168;9.848;2023-03-14T11:34:53;94927.56;;;15.48;65.86
40992;BME280;29633;49.168;9.848;2023-03-14T11:37:33;94929.19;;;15.43;65.95
40992;BME280;29633;49.168;9.848;2023-03-14T11:40:12;94941.00;;;15.32;66.13
40992;BME280;29633;49.168;9.848;2023-03-14T11:42:39;94955.03;;;15.18;66.21
40992;BME280;29633;49.168;9.848;2023-03-14T11:45:25;94958.16;;;15.00;66.42
40992;BME280;29633;49.168;9.848;2023-03-14T11:48:17;94964.75;;;14.90;66.52
40992;BME280;29633;49.168;9.848;2023-03-14T11:50:47;94971.09;;;14.81;66.47
40992;BME280;29633;49.168;9.848;2023-03-14T11:53:26;94966.25;;;14.71;66.71
40992;BME280;29633;49.168;9.848;2023-03-14T11:55:55;94970.81;;;14.62;66.83
40992;BME280;29633;49.168;9.848;2023-03-14T11:58:23;94970.16;;;14.54;66.79
40992;BME280;29633;49.168;9.848;2023-03-14T12:00:51;94980.09;;;14.44;67.00
40992;BME280;29633;49.168;9.848;2023-03-14T12:03:52;94970.84;;;14.35;66.90
40992;BME280;29633;49.168;9.848;2023-03-14T12:06:27;94962.94;;;14.28;66.91
40992;BME280;29633;49.168;9.848;2023-03-14T12:08:55;94977.91;;;14.19;66.96
40992;BME280;29633;49.168;9.848;2023-03-14T12:13:56;94967.09;;;13.95;67.35
40992;BME280;29633;49.168;9.848;2023-03-14T12:16:30;94980.06;;;13.88;67.37
40992;BME280;29633;49.168;9.848;2023-03-14T12:18:57;94979.63;;;13.85;67.37
40992;BME280;29633;49.168;9.848;2023-03-14T12:21:57;94991.84;;;13.84;67.51
40992;BME280;29633;49.168;9.848;2023-03-14T12:24:26;94988.97;;;13.79;67.25
40992;BME280;29633;49.168;9.848;2023-03-14T12:26:55;94987.94;;;13.73;67.50
40992;BME280;29633;49.168;9.848;2023-03-14T12:29:21;94987.88;;;13.67;67.48
40992;BME280;29633;49.168;9.848;2023-03-14T12:31:49;94992.00;;;13.61;67.33
40992;BME280;29633;49.168;9.848;2023-03-14T12:49:39;95009.63;;;13.23;67.88
40992;BME280;29633;49.168;9.848;2023-03-14T12:52:14;95015.38;;;13.19;68.11
40992;BME280;29633;49.168;9.848;2023-03-14T13:00:37;95010.50;;;13.01;68.41
40992;BME280;29633;49.168;9.848;2023-03-14T13:03:25;95025.59;;;13.06;68.36
40992;BME280;29633;49.168;9.848;2023-03-14T13:05:55;95025.13;;;13.02;68.14
40992;BME280;29633;49.168;9.848;2023-03-14T13:08:44;95046.72;;;13.03;68.16
40992;BME280;29633;49.168;9.848;2023-03-14T13:11:14;95050.69;;;12.99;68.19
40992;BME280;29633;49.168;9.848;2023-03-14T13:13:45;95061.91;;;12.99;68.19
40992;BME280;29633;49.168;9.848;2023-03-14T13:16:18;95083.44;;;12.93;68.42
40992;BME280;29633;49.168;9.848;2023-03-14T13:18:46;95090.25;;;12.79;68.63
40992;BME280;29633;49.168;9.848;2023-03-14T13:21:17;95102.25;;;12.66;68.62
40992;BME280;29633;49.168;9.848;2023-03-14T13:26:42;95151.78;;;12.42;68.72
40992;BME280;29633;49.168;9.848;2023-03-14T13:29:22;95149.59;;;12.30;68.92
40992;BME280;29633;49.168;9.848;2023-03-14T13:32:21;95161.22;;;12.20;68.80
40992;BME280;29633;49.168;9.848;2023-03-14T13:34:47;95180.94;;;12.06;69.01
40992;BME280;29633;49.168;9.848;2023-03-14T13:37:22;95198.06;;;11.93;68.82
40992;BME280;29633;49.168;9.848;2023-03-14T13:39:52;95221.13;;;11.79;69.00
40992;BME280;29633;49.168;9.848;2023-03-14T13:42:21;95203.00;;;11.63;69.00
40992;BME280;29633;49.168;9.848;2023-03-14T13:44:49;95222.84;;;11.48;68.91
40992;BME280;29633;49.168;9.848;2023-03-14T13:47:18;95226.44;;;11.39;68.86
40992;BME280;29633;49.168;9.848;2023-03-14T13:49:44;95231.00;;;11.29;69.07
40992;BME280;29633;49.168;9.848;2023-03-14T13:52:40;95238.31;;;11.17;68.85
40992;BME280;29633;49.168;9.848;2023-03-14T13:55:14;95253.06;;;11.09;68.96
40992;BME280;29633;49.168;9.848;2023-03-14T13:57:53;95247.06;;;11.00;68.84
40992;BME280;29633;49.168;9.848;2023-03-14T14:00:25;95277.53;;;10.98;68.64
40992;BME280;29633;49.168;9.848;2023-03-14T14:02:58;95271.22;;;10.93;68.93
40992;BME280;29633;49.168;9.848;2023-03-14T14:05:28;95272.53;;;10.89;68.75
40992;BME280;29633;49.168;9.848;2023-03-14T14:07:55;95269.28;;;10.86;68.41
40992;BME280;29633;49.168;9.848;2023-03-14T14:10:20;95267.97;;;10.82;68.53